sensor_id;sensor_type;location;lat;lon;timestamp;pressure;altitude;pressure_sealevel;temperature;humidity
48926;BME280;39838;59.938;30.642;2023-03-03T00:01:19;99099.72;;;0.54;81.07
48926;BME280;39838;59.938;30.642;2023-03-03T00:03:46;99104.78;;;0.51;80.93
48926;BME280;39838;59.938;30.642;2023-03-03T00:06:13;99103.06;;;0.50;81.11
48926;BME280;39838;59.938;30.642;2023-03-03T00:08:41;99104.81;;;0.52;81.15
48926;BME280;39838;59.938;30.642;2023-03-03T00:11:09;99095.38;;;0.48;80.91
48926;BME280;39838;59.938;30.642;2023-03-03T00:13:44;99103.09;;;0.51;80.57
48926;BME280;39838;59.938;30.642;2023-03-03T00:16:14;99079.72;;;0.30;80.88
48926;BME280;39838;59.938;30.642;2023-03-03T00:18:47;99114.09;;;0.47;80.56
48926;BME280;39838;59.938;30.642;2023-03-03T00:21:26;99114.97;;;0.48;80.38
48926;BME280;39838;59.938;30.642;2023-03-03T00:23:54;99105.56;;;0.47;80.96
48926;BME280;39838;59.938;30.642;2023-03-03T00:26:29;99108.06;;;0.42;80.83
48926;BME280;39838;59.938;30.642;2023-03-03T00:28:58;99114.97;;;0.48;80.51
48926;BME280;39838;59.938;30.642;2023-03-03T00:31:34;99109.91;;;0.51;81.11
48926;BME280;39838;59.938;30.642;2023-03-03T00:34:18;99120.13;;;0.51;80.58
48926;BME280;39838;59.938;30.642;2023-03-03T00:36:49;99109.81;;;0.46;80.90
48926;BME280;39838;59.938;30.642;2023-03-03T00:39:25;99108.13;;;0.47;80.80
48926;BME280;39838;59.938;30.642;2023-03-03T00:41:53;99106.38;;;0.44;81.41
48926;BME280;39838;59.938;30.642;2023-03-03T00:44:36;99113.22;;;0.45;81.32
48926;BME280;39838;59.938;30.642;2023-03-03T00:47:18;99112.31;;;0.43;81.20
48926;BME280;39838;59.938;30.642;2023-03-03T00:49:52;99102.03;;;0.40;81.44
48926;BME280;39838;59.938;30.642;2023-03-03T00:52:24;99118.31;;;0.45;81.14
48926;BME280;39838;59.938;30.642;2023-03-03T00:54:53;99114.81;;;0.40;81.14
48926;BME280;39838;59.938;30.642;2023-03-03T00:57:20;99116.56;;;0.43;81.49
48926;BME280;39838;59.938;30.642;2023-03-03T00:59:47;99111.44;;;0.41;81.78
48926;BME280;39838;59.938;30.642;2023-03-03T01:02:15;99114.00;;;0.41;81.13
48926;BME280;39838;59.938;30.642;2023-03-03T01:04:43;99106.16;;;0.32;81.55
48926;BME280;39838;59.938;30.642;2023-03-03T01:07:15;99106.97;;;0.31;81.66
48926;BME280;39838;59.938;30.642;2023-03-03T01:09:42;99110.38;;;0.30;81.76
48926;BME280;39838;59.938;30.642;2023-03-03T01:12:09;99118.84;;;0.28;81.29
48926;BME280;39838;59.938;30.642;2023-03-03T01:14:37;99114.53;;;0.25;82.02
48926;BME280;39838;59.938;30.642;2023-03-03T01:17:04;99112.00;;;0.26;81.94
48926;BME280;39838;59.938;30.642;2023-03-03T01:19:32;99115.38;;;0.25;82.06
48926;BME280;39838;59.938;30.642;2023-03-03T01:21:59;99116.19;;;0.23;81.47
48926;BME280;39838;59.938;30.642;2023-03-03T01:24:27;99128.13;;;0.22;81.95
48926;BME280;39838;59.938;30.642;2023-03-03T01:26:55;99114.47;;;0.20;81.91
48926;BME280;39838;59.938;30.642;2023-03-03T01:29:22;99129.81;;;0.22;81.88
48926;BME280;39838;59.938;30.642;2023-03-03T01:31:49;99107.66;;;0.21;81.34
48926;BME280;39838;59.938;30.642;2023-03-03T01:34:16;99109.41;;;0.23;81.08
48926;BME280;39838;59.938;30.642;2023-03-03T01:36:43;99117.09;;;0.25;80.92
48926;BME280;39838;59.938;30.642;2023-03-03T01:39:11;99114.59;;;0.28;80.48
48926;BME280;39838;59.938;30.642;2023-03-03T01:41:39;99097.47;;;0.24;80.60
48926;BME280;39838;59.938;30.642;2023-03-03T01:44:10;99100.91;;;0.24;80.18
48926;BME280;39838;59.938;30.642;2023-03-03T01:46:44;99104.31;;;0.25;80.21
48926;BME280;39838;59.938;30.642;2023-03-03T01:49:15;99111.91;;;0.20;79.47
48926;BME280;39838;59.938;30.642;2023-03-03T01:51:47;99098.16;;;0.14;80.15
48926;BME280;39838;59.938;30.642;2023-03-03T01:54:17;99073.13;;;-0.04;79.68
48926;BME280;39838;59.938;30.642;2023-03-03T01:56:49;99101.44;;;0.08;79.36
48926;BME280;39838;59.938;30.642;2023-03-03T01:59:20;99102.94;;;-0.02;79.40
48926;BME280;39838;59.938;30.642;2023-03-03T02:01:49;99105.47;;;-0.03;79.60
48926;BME280;39838;59.938;30.642;2023-03-03T02:04:17;99104.63;;;-0.04;80.02
48926;BME280;39838;59.938;30.642;2023-03-03T02:06:49;99106.34;;;-0.01;80.02
48926;BME280;39838;59.938;30.642;2023-03-03T02:09:25;99105.47;;;-0.03;80.28
48926;BME280;39838;59.938;30.642;2023-03-03T02:11:58;99103.72;;;-0.06;80.64
48926;BME280;39838;59.938;30.642;2023-03-03T02:14:26;99081.38;;;-0.16;80.57
48926;BME280;39838;59.938;30.642;2023-03-03T02:16:53;99103.84;;;0.01;80.67
48926;BME280;39838;59.938;30.642;2023-03-03T02:19:26;99102.22;;;0.06;80.91
48926;BME280;39838;59.938;30.642;2023-03-03T02:21:58;99109.16;;;0.11;80.95
48926;BME280;39838;59.938;30.642;2023-03-03T02:24:32;99109.00;;;0.04;80.89
48926;BME280;39838;59.938;30.642;2023-03-03T02:27:02;99102.09;;;-0.01;81.04
48926;BME280;39838;59.938;30.642;2023-03-03T02:29:29;99102.34;;;0.10;80.78
48926;BME280;39838;59.938;30.642;2023-03-03T02:31:56;99114.28;;;0.13;80.60
48926;BME280;39838;59.938;30.642;2023-03-03T02:34:23;99103.06;;;0.05;80.35
48926;BME280;39838;59.938;30.642;2023-03-03T02:36:50;99101.34;;;0.04;80.93
48926;BME280;39838;59.938;30.642;2023-03-03T02:39:20;99103.03;;;0.02;80.56
48926;BME280;39838;59.938;30.642;2023-03-03T02:41:51;99104.56;;;-0.07;80.74
48926;BME280;39838;59.938;30.642;2023-03-03T02:44:22;99103.00;;;0.00;80.45
48926;BME280;39838;59.938;30.642;2023-03-03T02:46:51;99102.91;;;-0.05;80.36
48926;BME280;39838;59.938;30.642;2023-03-03T02:49:20;99114.09;;;0.02;80.44
48926;BME280;39838;59.938;30.642;2023-03-03T02:51:48;99100.47;;;0.02;80.18
48926;BME280;39838;59.938;30.642;2023-03-03T02:54:17;99114.88;;;-0.01;80.65
48926;BME280;39838;59.938;30.642;2023-03-03T02:56:45;99108.88;;;-0.04;80.73
48926;BME280;39838;59.938;30.642;2023-03-03T02:59:13;99109.75;;;-0.02;80.25
48926;BME280;39838;59.938;30.642;2023-03-03T03:01:42;99109.84;;;0.03;80.45
48926;BME280;39838;59.938;30.642;2023-03-03T03:04:12;99112.53;;;0.09;80.06
48926;BME280;39838;59.938;30.642;2023-03-03T03:06:39;99092.06;;;0.07;80.18
48926;BME280;39838;59.938;30.642;2023-03-03T03:09:07;99079.09;;;-0.04;80.00
48926;BME280;39838;59.938;30.642;2023-03-03T03:11:35;99104.03;;;0.10;79.59
48926;BME280;39838;59.938;30.642;2023-03-03T03:14:03;99108.25;;;0.08;79.92
48926;BME280;39838;59.938;30.642;2023-03-03T03:16:30;99105.47;;;-0.03;80.03
48926;BME280;39838;59.938;30.642;2023-03-03T03:18:59;99107.16;;;-0.05;79.78
48926;BME280;39838;59.938;30.642;2023-03-03T03:21:27;99103.69;;;-0.07;80.38
48926;BME280;39838;59.938;30.642;2023-03-03T03:23:55;99119.97;;;-0.01;79.94
48926;BME280;39838;59.938;30.642;2023-03-03T03:26:22;99109.78;;;-0.01;79.66
48926;BME280;39838;59.938;30.642;2023-03-03T03:28:50;99116.66;;;0.02;79.54
48926;BME280;39838;59.938;30.642;2023-03-03T03:31:18;99102.06;;;-0.04;79.92
48926;BME280;39838;59.938;30.642;2023-03-03T03:33:47;99103.03;;;0.02;79.98
48926;BME280;39838;59.938;30.642;2023-03-03T03:36:16;99111.63;;;0.07;79.54
48926;BME280;39838;59.938;30.642;2023-03-03T03:38:43;99095.53;;;0.11;79.63
48926;BME280;39838;59.938;30.642;2023-03-03T03:41:11;99095.34;;;0.02;78.77
48926;BME280;39838;59.938;30.642;2023-03-03T03:43:38;99098.69;;;-0.01;79.29
48926;BME280;39838;59.938;30.642;2023-03-03T03:46:06;99089.28;;;-0.04;79.08
48926;BME280;39838;59.938;30.642;2023-03-03T03:48:33;99079.91;;;-0.06;79.27
48926;BME280;39838;59.938;30.642;2023-03-03T03:51:00;99090.13;;;-0.05;79.32
48926;BME280;39838;59.938;30.642;2023-03-03T03:53:29;99085.88;;;-0.04;79.23
48926;BME280;39838;59.938;30.642;2023-03-03T03:55:56;99076.44;;;-0.08;79.03
48926;BME280;39838;59.938;30.642;2023-03-03T03:58:23;99079.19;;;0.03;79.13
48926;BME280;39838;59.938;30.642;2023-03-03T04:00:50;99089.53;;;0.07;78.72
48926;BME280;39838;59.938;30.642;2023-03-03T04:03:17;99074.22;;;0.09;78.90
48926;BME280;39838;59.938;30.642;2023-03-03T04:05:45;99081.88;;;0.09;78.39
48926;BME280;39838;59.938;30.642;2023-03-03T04:08:12;99082.75;;;0.11;78.44
48926;BME280;39838;59.938;30.642;2023-03-03T04:10:41;99081.88;;;0.09;78.80
48926;BME280;39838;59.938;30.642;2023-03-03T04:13:08;99089.53;;;0.09;78.29
48926;BME280;39838;59.938;30.642;2023-03-03T04:15:35;99091.19;;;0.07;78.81
48926;BME280;39838;59.938;30.642;2023-03-03T04:18:02;99086.16;;;0.11;78.38
48926;BME280;39838;59.938;30.642;2023-03-03T04:20:29;99094.75;;;0.15;78.74
48926;BME280;39838;59.938;30.642;2023-03-03T04:22:56;99091.31;;;0.13;78.64
48926;BME280;39838;59.938;30.642;2023-03-03T04:25:24;99098.06;;;0.09;78.64
48926;BME280;39838;59.938;30.642;2023-03-03T04:27:52;99101.22;;;-0.03;78.44
48926;BME280;39838;59.938;30.642;2023-03-03T04:30:19;99098.41;;;-0.15;78.64
48926;BME280;39838;59.938;30.642;2023-03-03T04:32:47;99093.19;;;-0.21;78.51
48926;BME280;39838;59.938;30.642;2023-03-03T04:35:14;99093.00;;;-0.30;78.65
48926;BME280;39838;59.938;30.642;2023-03-03T04:37:42;99097.22;;;-0.32;78.78
48926;BME280;39838;59.938;30.642;2023-03-03T04:40:10;99102.34;;;-0.31;78.88
48926;BME280;39838;59.938;30.642;2023-03-03T04:42:38;99091.91;;;-0.41;78.38
48926;BME280;39838;59.938;30.642;2023-03-03T04:45:08;99094.38;;;-0.46;78.82
48926;BME280;39838;59.938;30.642;2023-03-03T04:47:35;99096.06;;;-0.46;79.06
48926;BME280;39838;59.938;30.642;2023-03-03T04:50:03;99097.50;;;-0.59;79.08
48926;BME280;39838;59.938;30.642;2023-03-03T04:52:30;99104.22;;;-0.63;78.94
48926;BME280;39838;59.938;30.642;2023-03-03T04:54:57;99093.94;;;-0.66;79.41
48926;BME280;39838;59.938;30.642;2023-03-03T04:57:24;99096.50;;;-0.66;79.18
48926;BME280;39838;59.938;30.642;2023-03-03T04:59:51;99104.22;;;-0.61;79.45
48926;BME280;39838;59.938;30.642;2023-03-03T05:02:20;99101.75;;;-0.60;78.96
48926;BME280;39838;59.938;30.642;2023-03-03T05:04:47;99114.41;;;-0.63;79.29
48926;BME280;39838;59.938;30.642;2023-03-03T05:07:14;99107.56;;;-0.65;79.10
48926;BME280;39838;59.938;30.642;2023-03-03T05:09:42;99099.94;;;-0.64;78.89
48926;BME280;39838;59.938;30.642;2023-03-03T05:12:09;99102.56;;;-0.61;79.21
48926;BME280;39838;59.938;30.642;2023-03-03T05:14:36;99100.06;;;-0.58;79.08
48926;BME280;39838;59.938;30.642;2023-03-03T05:17:03;99105.19;;;-0.58;79.13
48926;BME280;39838;59.938;30.642;2023-03-03T05:19:32;99107.75;;;-0.56;78.94
48926;BME280;39838;59.938;30.642;2023-03-03T05:21:59;99110.38;;;-0.53;78.98
48926;BME280;39838;59.938;30.642;2023-03-03T05:24:27;99108.78;;;-0.48;78.53
48926;BME280;39838;59.938;30.642;2023-03-03T05:26:54;99116.53;;;-0.43;78.45
48926;BME280;39838;59.938;30.642;2023-03-03T05:29:21;99112.41;;;-0.38;78.69
48926;BME280;39838;59.938;30.642;2023-03-03T05:31:48;99110.81;;;-0.33;78.78
48926;BME280;39838;59.938;30.642;2023-03-03T05:34:15;99108.44;;;-0.24;78.62
48926;BME280;39838;59.938;30.642;2023-03-03T05:36:44;99119.63;;;-0.19;78.37
48926;BME280;39838;59.938;30.642;2023-03-03T05:39:11;99125.66;;;-0.14;78.55
48926;BME280;39838;59.938;30.642;2023-03-03T05:41:38;99125.00;;;-0.07;78.41
48926;BME280;39838;59.938;30.642;2023-03-03T05:44:05;99122.59;;;0.01;78.05
48926;BME280;39838;59.938;30.642;2023-03-03T05:46:32;99124.31;;;0.02;77.95
48926;BME280;39838;59.938;30.642;2023-03-03T05:48:59;99125.22;;;0.06;77.65
48926;BME280;39838;59.938;30.642;2023-03-03T05:51:27;99127.78;;;0.06;77.70
48926;BME280;39838;59.938;30.642;2023-03-03T05:53:55;99125.88;;;-0.05;77.09
48926;BME280;39838;59.938;30.642;2023-03-03T05:56:22;99131.56;;;-0.18;77.12
48926;BME280;39838;59.938;30.642;2023-03-03T05:58:49;99142.47;;;-0.25;77.45
48926;BME280;39838;59.938;30.642;2023-03-03T06:01:16;99131.09;;;-0.39;77.54
48926;BME280;39838;59.938;30.642;2023-03-03T06:03:44;99140.94;;;-0.55;77.99
48926;BME280;39838;59.938;30.642;2023-03-03T06:06:11;99146.66;;;-0.66;78.75
48926;BME280;39838;59.938;30.642;2023-03-03T06:08:40;99146.53;;;-0.71;78.84
48926;BME280;39838;59.938;30.642;2023-03-03T06:11:09;99153.34;;;-0.70;79.45
48926;BME280;39838;59.938;30.642;2023-03-03T06:13:37;99152.44;;;-0.73;79.22
48926;BME280;39838;59.938;30.642;2023-03-03T06:16:06;99152.59;;;-0.67;79.12
48926;BME280;39838;59.938;30.642;2023-03-03T06:18:33;99152.66;;;-0.64;79.03
48926;BME280;39838;59.938;30.642;2023-03-03T06:21:00;99154.50;;;-0.57;79.27
48926;BME280;39838;59.938;30.642;2023-03-03T06:23:27;99153.97;;;-0.44;78.82
48926;BME280;39838;59.938;30.642;2023-03-03T06:25:55;99150.03;;;-0.28;78.54
48926;BME280;39838;59.938;30.642;2023-03-03T06:28:23;99154.72;;;-0.09;78.67
48926;BME280;39838;59.938;30.642;2023-03-03T06:30:52;99142.25;;;0.07;78.08
48926;BME280;39838;59.938;30.642;2023-03-03T06:33:19;99147.56;;;0.16;77.69
48926;BME280;39838;59.938;30.642;2023-03-03T06:35:48;99151.09;;;0.22;77.56
48926;BME280;39838;59.938;30.642;2023-03-03T06:38:16;99149.69;;;0.37;77.37
48926;BME280;39838;59.938;30.642;2023-03-03T06:40:43;99151.53;;;0.45;77.04
48926;BME280;39838;59.938;30.642;2023-03-03T06:43:11;99154.31;;;0.58;76.96
48926;BME280;39838;59.938;30.642;2023-03-03T06:45:40;99146.69;;;0.61;76.16
48926;BME280;39838;59.938;30.642;2023-03-03T06:48:07;99155.44;;;0.72;76.19
48926;BME280;39838;59.938;30.642;2023-03-03T06:50:34;99155.41;;;0.69;74.95
48926;BME280;39838;59.938;30.642;2023-03-03T06:53:10;99151.78;;;0.59;75.39
48926;BME280;39838;59.938;30.642;2023-03-03T06:55:38;99155.03;;;0.50;75.17
48926;BME280;39838;59.938;30.642;2023-03-03T06:58:10;99170.28;;;0.46;75.72
48926;BME280;39838;59.938;30.642;2023-03-03T07:00:40;99161.72;;;0.42;75.25
48926;BME280;39838;59.938;30.642;2023-03-03T07:03:13;99153.94;;;0.38;75.41
48926;BME280;39838;59.938;30.642;2023-03-03T07:05:41;99164.19;;;0.39;75.63
48926;BME280;39838;59.938;30.642;2023-03-03T07:08:12;99169.25;;;0.35;75.42
48926;BME280;39838;59.938;30.642;2023-03-03T07:10:40;99162.56;;;0.41;75.51
48926;BME280;39838;59.938;30.642;2023-03-03T07:13:18;99162.56;;;0.43;75.13
48926;BME280;39838;59.938;30.642;2023-03-03T07:15:47;99171.25;;;0.51;74.44
48926;BME280;39838;59.938;30.642;2023-03-03T07:18:24;99164.25;;;0.41;74.25
48926;BME280;39838;59.938;30.642;2023-03-03T07:20:54;99164.44;;;0.53;74.62
48926;BME280;39838;59.938;30.642;2023-03-03T07:23:24;99160.19;;;0.53;74.45
48926;BME280;39838;59.938;30.642;2023-03-03T07:25:52;99167.97;;;0.58;74.28
48926;BME280;39838;59.938;30.642;2023-03-03T07:28:22;99177.34;;;0.58;74.27
48926;BME280;39838;59.938;30.642;2023-03-03T07:30:52;99172.25;;;0.61;74.42
48926;BME280;39838;59.938;30.642;2023-03-03T07:33:25;99139.88;;;0.60;73.73
48926;BME280;39838;59.938;30.642;2023-03-03T07:35:53;99168.25;;;0.73;73.49
48926;BME280;39838;59.938;30.642;2023-03-03T07:38:29;99144.13;;;0.59;73.68
48926;BME280;39838;59.938;30.642;2023-03-03T07:40:58;99164.94;;;0.80;73.67
48926;BME280;39838;59.938;30.642;2023-03-03T07:43:33;99165.06;;;0.87;73.09
48926;BME280;39838;59.938;30.642;2023-03-03T07:46:15;99166.03;;;0.93;72.98
48926;BME280;39838;59.938;30.642;2023-03-03T07:48:48;99166.78;;;0.88;72.82
48926;BME280;39838;59.938;30.642;2023-03-03T07:51:20;99166.78;;;0.88;73.13
48926;BME280;39838;59.938;30.642;2023-03-03T07:53:50;99162.38;;;0.79;72.75
48926;BME280;39838;59.938;30.642;2023-03-03T07:56:26;99162.38;;;0.79;73.34
48926;BME280;39838;59.938;30.642;2023-03-03T07:58:54;99159.81;;;0.79;73.35
48926;BME280;39838;59.938;30.642;2023-03-03T08:01:35;99129.66;;;0.60;73.42
48926;BME280;39838;59.938;30.642;2023-03-03T08:04:14;99176.97;;;0.85;73.17
48926;BME280;39838;59.938;30.642;2023-03-03T08:06:45;99167.81;;;0.97;73.38
48926;BME280;39838;59.938;30.642;2023-03-03T08:09:37;99174.97;;;1.17;72.78
48926;BME280;39838;59.938;30.642;2023-03-03T08:12:27;99165.75;;;1.28;72.47
48926;BME280;39838;59.938;30.642;2023-03-03T08:14:55;99152.84;;;1.22;71.56
48926;BME280;39838;59.938;30.642;2023-03-03T08:17:30;99170.91;;;1.29;71.29
48926;BME280;39838;59.938;30.642;2023-03-03T08:22:49;99176.94;;;1.33;71.41
48926;BME280;39838;59.938;30.642;2023-03-03T08:25:16;99163.38;;;1.40;71.71
48926;BME280;39838;59.938;30.642;2023-03-03T08:27:43;99155.97;;;1.57;71.71
48926;BME280;39838;59.938;30.642;2023-03-03T08:30:11;99170.72;;;1.75;71.31
48926;BME280;39838;59.938;30.642;2023-03-03T08:32:40;99158.06;;;1.84;70.83
48926;BME280;39838;59.938;30.642;2023-03-03T08:35:08;99162.34;;;1.85;70.49
48926;BME280;39838;59.938;30.642;2023-03-03T08:37:35;99158.94;;;1.86;70.55
48926;BME280;39838;59.938;30.642;2023-03-03T08:40:02;99162.34;;;1.85;70.31
48926;BME280;39838;59.938;30.642;2023-03-03T08:42:30;99155.50;;;1.84;70.66
48926;BME280;39838;59.938;30.642;2023-03-03T08:44:57;99159.09;;;1.98;70.73
48926;BME280;39838;59.938;30.642;2023-03-03T08:47:25;99154.84;;;1.99;70.32
48926;BME280;39838;59.938;30.642;2023-03-03T08:49:55;99162.34;;;1.86;70.57
48926;BME280;39838;59.938;30.642;2023-03-03T08:52:22;99153.81;;;1.86;71.06
48926;BME280;39838;59.938;30.642;2023-03-03T08:54:49;99156.63;;;2.06;70.80
48926;BME280;39838;59.938;30.642;2023-03-03T08:57:16;99162.72;;;2.15;70.19
48926;BME280;39838;59.938;30.642;2023-03-03T08:59:43;99164.56;;;2.26;69.80
48926;BME280;39838;59.938;30.642;2023-03-03T09:02:12;99155.13;;;2.23;69.74
48926;BME280;39838;59.938;30.642;2023-03-03T09:04:39;99162.94;;;2.34;69.88
48926;BME280;39838;59.938;30.642;2023-03-03T09:07:08;99162.03;;;2.30;69.53
48926;BME280;39838;59.938;30.642;2023-03-03T09:09:35;99159.44;;;2.26;69.60
48926;BME280;39838;59.938;30.642;2023-03-03T09:12:12;99163.69;;;2.24;69.05
48926;BME280;39838;59.938;30.642;2023-03-03T09:14:40;99159.44;;;2.24;69.38
48926;BME280;39838;59.938;30.642;2023-03-03T09:17:21;99163.81;;;2.36;69.06
48926;BME280;39838;59.938;30.642;2023-03-03T09:19:49;99154.63;;;2.52;68.72
48926;BME280;39838;59.938;30.642;2023-03-03T09:22:21;99147.91;;;2.64;68.74
48926;BME280;39838;59.938;30.642;2023-03-03T09:24:49;99159.19;;;2.83;67.53
48926;BME280;39838;59.938;30.642;2023-03-03T09:27:24;99153.25;;;2.89;67.54
48926;BME280;39838;59.938;30.642;2023-03-03T09:29:53;99149.97;;;2.99;67.41
48926;BME280;39838;59.938;30.642;2023-03-03T09:32:32;99154.38;;;3.17;67.25
48926;BME280;39838;59.938;30.642;2023-03-03T09:35:00;99149.38;;;3.37;66.62
48926;BME280;39838;59.938;30.642;2023-03-03T09:37:50;99126.31;;;3.40;66.58
48926;BME280;39838;59.938;30.642;2023-03-03T09:40:40;99140.19;;;3.68;66.47
48926;BME280;39838;59.938;30.642;2023-03-03T09:43:12;99138.56;;;3.85;65.85
48926;BME280;39838;59.938;30.642;2023-03-03T09:45:51;99147.13;;;3.82;65.17
48926;BME280;39838;59.938;30.642;2023-03-03T09:48:48;99138.56;;;3.80;65.04
48926;BME280;39838;59.938;30.642;2023-03-03T09:51:35;99154.91;;;3.93;65.33
48926;BME280;39838;59.938;30.642;2023-03-03T09:54:17;99140.38;;;4.00;64.26
48926;BME280;39838;59.938;30.642;2023-03-03T09:56:52;99135.22;;;4.03;63.92
48926;BME280;39838;59.938;30.642;2023-03-03T09:59:30;99136.94;;;4.02;64.37
48926;BME280;39838;59.938;30.642;2023-03-03T10:02:15;99144.63;;;3.98;63.87
48926;BME280;39838;59.938;30.642;2023-03-03T10:04:54;99095.66;;;3.72;64.24
48926;BME280;39838;59.938;30.642;2023-03-03T10:07:35;99142.88;;;3.92;64.05
48926;BME280;39838;59.938;30.642;2023-03-03T10:10:16;99104.19;;;3.60;63.72
48926;BME280;39838;59.938;30.642;2023-03-03T10:12:53;99142.03;;;3.87;64.20
48926;BME280;39838;59.938;30.642;2023-03-03T10:15:34;99141.19;;;3.97;63.19
48926;BME280;39838;59.938;30.642;2023-03-03T10:18:12;99139.38;;;3.75;63.25
48926;BME280;39838;59.938;30.642;2023-03-03T10:20:46;99123.06;;;3.68;63.34
48926;BME280;39838;59.938;30.642;2023-03-03T10:23:23;99117.84;;;3.56;63.48
48926;BME280;39838;59.938;30.642;2023-03-03T10:26:05;99120.41;;;3.53;63.82
48926;BME280;39838;59.938;30.642;2023-03-03T10:29:06;99126.28;;;3.37;63.23
48926;BME280;39838;59.938;30.642;2023-03-03T10:31:48;99127.94;;;3.25;63.65
48926;BME280;39838;59.938;30.642;2023-03-03T10:34:43;99127.88;;;3.21;63.89
48926;BME280;39838;59.938;30.642;2023-03-03T10:37:19;99127.03;;;3.19;63.24
48926;BME280;39838;59.938;30.642;2023-03-03T10:40:01;99128.63;;;3.09;63.86
48926;BME280;39838;59.938;30.642;2023-03-03T10:42:44;99134.63;;;3.11;63.57
48926;BME280;39838;59.938;30.642;2023-03-03T10:45:39;99125.16;;;3.01;63.58
48926;BME280;39838;59.938;30.642;2023-03-03T10:48:23;99122.59;;;2.99;63.69
48926;BME280;39838;59.938;30.642;2023-03-03T10:51:01;99120.84;;;2.95;63.81
48926;BME280;39838;59.938;30.642;2023-03-03T10:53:40;99123.41;;;2.95;63.90
48926;BME280;39838;59.938;30.642;2023-03-03T10:56:21;99082.13;;;2.68;64.09
48926;BME280;39838;59.938;30.642;2023-03-03T10:59:05;99113.97;;;2.94;63.75
48926;BME280;39838;59.938;30.642;2023-03-03T11:01:45;99106.22;;;2.87;63.73
48926;BME280;39838;59.938;30.642;2023-03-03T11:04:27;99130.19;;;2.89;63.29
48926;BME280;39838;59.938;30.642;2023-03-03T11:07:02;99121.69;;;2.94;63.24
48926;BME280;39838;59.938;30.642;2023-03-03T11:10:01;99123.31;;;2.86;63.26
48926;BME280;39838;59.938;30.642;2023-03-03T11:12:40;99120.56;;;2.66;63.45
48926;BME280;39838;59.938;30.642;2023-03-03T11:15:30;99121.44;;;2.65;64.00
48926;BME280;39838;59.938;30.642;2023-03-03T11:18:14;99118.78;;;2.59;63.89
48926;BME280;39838;59.938;30.642;2023-03-03T11:20:50;99125.63;;;2.59;63.70
48926;BME280;39838;59.938;30.642;2023-03-03T11:23:41;99116.19;;;2.55;63.45
48926;BME280;39838;59.938;30.642;2023-03-03T11:26:14;99122.28;;;2.67;63.39
48926;BME280;39838;59.938;30.642;2023-03-03T11:28:52;99103.28;;;2.44;63.04
48926;BME280;39838;59.938;30.642;2023-03-03T11:31:32;99122.16;;;2.52;63.23
48926;BME280;39838;59.938;30.642;2023-03-03T11:34:14;99111.94;;;2.58;62.79
48926;BME280;39838;59.938;30.642;2023-03-03T11:36:49;99090.59;;;2.61;62.97
48926;BME280;39838;59.938;30.642;2023-03-03T11:39:22;99083.81;;;2.67;62.47
48926;BME280;39838;59.938;30.642;2023-03-03T11:41:58;99101.94;;;2.86;62.71
48926;BME280;39838;59.938;30.642;2023-03-03T11:44:31;99096.94;;;3.04;62.31
48926;BME280;39838;59.938;30.642;2023-03-03T11:47:04;99078.19;;;3.11;62.08
48926;BME280;39838;59.938;30.642;2023-03-03T11:49:36;99096.28;;;3.28;61.39
48926;BME280;39838;59.938;30.642;2023-03-03T11:52:17;99084.19;;;3.13;60.61
48926;BME280;39838;59.938;30.642;2023-03-03T11:54:49;99085.78;;;2.97;60.91
48926;BME280;39838;59.938;30.642;2023-03-03T11:57:21;99089.94;;;2.82;60.92
48926;BME280;39838;59.938;30.642;2023-03-03T11:59:59;99083.03;;;2.73;61.28
48926;BME280;39838;59.938;30.642;2023-03-03T12:02:47;99080.41;;;2.68;61.04
48926;BME280;39838;59.938;30.642;2023-03-03T12:05:29;99077.84;;;2.65;60.89
48926;BME280;39838;59.938;30.642;2023-03-03T12:08:04;99074.41;;;2.68;61.22
48926;BME280;39838;59.938;30.642;2023-03-03T12:10:36;99065.03;;;2.70;61.01
48926;BME280;39838;59.938;30.642;2023-03-03T12:13:12;99065.91;;;2.72;60.95
48926;BME280;39838;59.938;30.642;2023-03-03T12:15:50;99065.03;;;2.70;61.11
48926;BME280;39838;59.938;30.642;2023-03-03T12:18:38;99068.31;;;2.52;60.69
48926;BME280;39838;59.938;30.642;2023-03-03T12:21:17;99074.16;;;2.42;60.59
48926;BME280;39838;59.938;30.642;2023-03-03T12:24:01;99066.34;;;2.30;60.91
48926;BME280;39838;59.938;30.642;2023-03-03T12:26:38;99061.19;;;2.25;60.93
48926;BME280;39838;59.938;30.642;2023-03-03T12:29:22;99059.41;;;2.18;61.23
48926;BME280;39838;59.938;30.642;2023-03-03T12:31:54;99025.97;;;2.04;61.65
48926;BME280;39838;59.938;30.642;2023-03-03T12:34:32;99063.78;;;2.27;61.24
48926;BME280;39838;59.938;30.642;2023-03-03T12:37:13;99062.91;;;2.26;61.13
48926;BME280;39838;59.938;30.642;2023-03-03T12:39:53;99052.59;;;2.17;60.77
48926;BME280;39838;59.938;30.642;2023-03-03T12:42:33;99053.38;;;2.11;61.05
48926;BME280;39838;59.938;30.642;2023-03-03T12:45:13;99056.72;;;2.07;60.80
48926;BME280;39838;59.938;30.642;2023-03-03T12:47:46;99049.88;;;2.06;61.10
48926;BME280;39838;59.938;30.642;2023-03-03T12:50:28;99046.41;;;2.01;60.97
48926;BME280;39838;59.938;30.642;2023-03-03T12:53:04;99031.88;;;2.00;61.07
48926;BME280;39838;59.938;30.642;2023-03-03T12:55:45;99038.75;;;2.03;60.93
48926;BME280;39838;59.938;30.642;2023-03-03T12:58:24;99037.84;;;1.99;60.89
48926;BME280;39838;59.938;30.642;2023-03-03T13:01:05;99037.00;;;1.97;60.62
48926;BME280;39838;59.938;30.642;2023-03-03T13:03:39;99029.25;;;1.94;60.92
48926;BME280;39838;59.938;30.642;2023-03-03T13:06:19;99034.44;;;1.97;61.00
48926;BME280;39838;59.938;30.642;2023-03-03T13:09:00;99028.47;;;2.01;61.16
48926;BME280;39838;59.938;30.642;2023-03-03T13:11:44;99026.75;;;1.99;60.89
48926;BME280;39838;59.938;30.642;2023-03-03T13:14:27;99007.84;;;1.89;61.22
48926;BME280;39838;59.938;30.642;2023-03-03T13:17:03;99025.00;;;1.95;61.43
48926;BME280;39838;59.938;30.642;2023-03-03T13:19:37;99025.81;;;1.90;61.42
48926;BME280;39838;59.938;30.642;2023-03-03T13:22:11;99016.22;;;1.73;61.78
48926;BME280;39838;59.938;30.642;2023-03-03T13:24:50;99023.91;;;1.74;62.19
48926;BME280;39838;59.938;30.642;2023-03-03T13:27:24;99021.22;;;1.63;62.61